sensor_id;sensor_type;location;lat;lon;timestamp;P1;durP1;ratioP1;P2;durP2;ratioP2
72406;SDS011;60396;47.550;18.828;2023-06-10T00:00:04;10.98;;;2.65;;
72406;SDS011;60396;47.550;18.828;2023-06-10T00:02:38;8.68;;;2.53;;
72406;SDS011;60396;47.550;18.828;2023-06-10T00:05:07;12.03;;;2.40;;
72406;SDS011;60396;47.550;18.828;2023-06-10T00:07:36;11.27;;;2.37;;
72406;SDS011;60396;47.550;18.828;2023-06-10T00:10:08;9.35;;;2.65;;
72406;SDS011;60396;47.550;18.828;2023-06-10T00:12:37;9.65;;;3.12;;
72406;SDS011;60396;47.550;18.828;2023-06-10T00:15:06;10.57;;;2.90;;
72406;SDS011;60396;47.550;18.828;2023-06-10T00:17:35;7.87;;;2.70;;
72406;SDS011;60396;47.550;18.828;2023-06-10T00:20:09;11.18;;;2.75;;
72406;SDS011;60396;47.550;18.828;2023-06-10T00:22:40;8.57;;;2.35;;
72406;SDS011;60396;47.550;18.828;2023-06-10T00:25:13;11.48;;;2.70;;
72406;SDS011;60396;47.550;18.828;2023-06-10T00:27:41;8.55;;;2.60;;
72406;SDS011;60396;47.550;18.828;2023-06-10T00:30:08;9.40;;;2.63;;
72406;SDS011;60396;47.550;18.828;2023-06-10T00:32:37;6.80;;;2.90;;
72406;SDS011;60396;47.550;18.828;2023-06-10T00:35:05;7.55;;;2.35;;
72406;SDS011;60396;47.550;18.828;2023-06-10T00:37:34;8.68;;;2.90;;
72406;SDS011;60396;47.550;18.828;2023-06-10T00:40:03;7.55;;;2.33;;
72406;SDS011;60396;47.550;18.828;2023-06-10T00:42:32;7.10;;;2.70;;
72406;SDS011;60396;47.550;18.828;2023-06-10T00:44:59;8.48;;;2.65;;
72406;SDS011;60396;47.550;18.828;2023-06-10T00:47:27;8.70;;;2.50;;
72406;SDS011;60396;47.550;18.828;2023-06-10T00:49:56;10.15;;;2.30;;
72406;SDS011;60396;47.550;18.828;2023-06-10T00:52:24;7.00;;;2.50;;
72406;SDS011;60396;47.550;18.828;2023-06-10T00:54:54;5.83;;;2.13;;
72406;SDS011;60396;47.550;18.828;2023-06-10T00:57:22;10.38;;;2.40;;
72406;SDS011;60396;47.550;18.828;2023-06-10T00:59:49;11.20;;;2.28;;
72406;SDS011;60396;47.550;18.828;2023-06-10T01:02:17;7.65;;;2.50;;
72406;SDS011;60396;47.550;18.828;2023-06-10T01:04:45;11.00;;;2.47;;
72406;SDS011;60396;47.550;18.828;2023-06-10T01:15:08;6.45;;;2.47;;
72406;SDS011;60396;47.550;18.828;2023-06-10T01:17:57;8.82;;;2.90;;
72406;SDS011;60396;47.550;18.828;2023-06-10T01:20:28;7.53;;;2.50;;
72406;SDS011;60396;47.550;18.828;2023-06-10T01:22:59;6.95;;;2.40;;
72406;SDS011;60396;47.550;18.828;2023-06-10T01:25:28;8.85;;;2.97;;
72406;SDS011;60396;47.550;18.828;2023-06-10T01:30:37;7.35;;;2.30;;
72406;SDS011;60396;47.550;18.828;2023-06-10T01:33:15;10.03;;;2.70;;
72406;SDS011;60396;47.550;18.828;2023-06-10T01:35:46;8.65;;;2.67;;
72406;SDS011;60396;47.550;18.828;2023-06-10T01:38:15;10.73;;;2.60;;
72406;SDS011;60396;47.550;18.828;2023-06-10T01:40:43;7.53;;;2.80;;
72406;SDS011;60396;47.550;18.828;2023-06-10T01:43:11;8.52;;;2.95;;
72406;SDS011;60396;47.550;18.828;2023-06-10T01:45:39;6.47;;;2.57;;
72406;SDS011;60396;47.550;18.828;2023-06-10T01:48:07;6.55;;;2.72;;
72406;SDS011;60396;47.550;18.828;2023-06-10T01:50:35;6.50;;;2.72;;
72406;SDS011;60396;47.550;18.828;2023-06-10T01:53:04;8.65;;;2.75;;
72406;SDS011;60396;47.550;18.828;2023-06-10T01:55:32;9.60;;;2.58;;
72406;SDS011;60396;47.550;18.828;2023-06-10T01:58:00;10.20;;;2.93;;
72406;SDS011;60396;47.550;18.828;2023-06-10T02:00:28;9.32;;;3.00;;
72406;SDS011;60396;47.550;18.828;2023-06-10T02:02:55;8.60;;;2.90;;
72406;SDS011;60396;47.550;18.828;2023-06-10T02:05:24;7.55;;;2.62;;
72406;SDS011;60396;47.550;18.828;2023-06-10T02:07:52;9.55;;;2.60;;
72406;SDS011;60396;47.550;18.828;2023-06-10T02:10:21;9.60;;;2.33;;
72406;SDS011;60396;47.550;18.828;2023-06-10T02:12:49;7.50;;;2.78;;
72406;SDS011;60396;47.550;18.828;2023-06-10T02:15:17;7.37;;;2.80;;
72406;SDS011;60396;47.550;18.828;2023-06-10T02:17:46;7.10;;;3.53;;
72406;SDS011;60396;47.550;18.828;2023-06-10T02:20:16;7.43;;;2.90;;
72406;SDS011;60396;47.550;18.828;2023-06-10T02:22:43;8.47;;;2.77;;
72406;SDS011;60396;47.550;18.828;2023-06-10T02:25:11;6.72;;;2.75;;
72406;SDS011;60396;47.550;18.828;2023-06-10T02:27:39;7.57;;;3.03;;
72406;SDS011;60396;47.550;18.828;2023-06-10T02:30:07;7.87;;;3.05;;
72406;SDS011;60396;47.550;18.828;2023-06-10T02:32:37;10.02;;;3.00;;
72406;SDS011;60396;47.550;18.828;2023-06-10T02:35:05;11.80;;;3.47;;
72406;SDS011;60396;47.550;18.828;2023-06-10T02:37:33;12.77;;;4.25;;
72406;SDS011;60396;47.550;18.828;2023-06-10T02:40:01;17.08;;;3.90;;
72406;SDS011;60396;47.550;18.828;2023-06-10T02:42:31;10.50;;;3.62;;
72406;SDS011;60396;47.550;18.828;2023-06-10T02:44:59;8.75;;;4.03;;
72406;SDS011;60396;47.550;18.828;2023-06-10T02:47:29;13.17;;;4.80;;
72406;SDS011;60396;47.550;18.828;2023-06-10T02:49:57;14.05;;;5.35;;
72406;SDS011;60396;47.550;18.828;2023-06-10T02:52:25;11.77;;;5.62;;
72406;SDS011;60396;47.550;18.828;2023-06-10T02:54:53;12.10;;;6.22;;
72406;SDS011;60396;47.550;18.828;2023-06-10T02:57:21;11.57;;;6.28;;
72406;SDS011;60396;47.550;18.828;2023-06-10T02:59:48;12.47;;;6.10;;
72406;SDS011;60396;47.550;18.828;2023-06-10T03:02:16;11.32;;;6.40;;
72406;SDS011;60396;47.550;18.828;2023-06-10T03:04:44;11.43;;;6.00;;
72406;SDS011;60396;47.550;18.828;2023-06-10T03:07:12;11.32;;;6.10;;
72406;SDS011;60396;47.550;18.828;2023-06-10T03:09:41;11.82;;;6.30;;
72406;SDS011;60396;47.550;18.828;2023-06-10T03:12:12;10.80;;;5.93;;
72406;SDS011;60396;47.550;18.828;2023-06-10T03:14:40;12.60;;;6.07;;
72406;SDS011;60396;47.550;18.828;2023-06-10T03:17:09;12.10;;;6.18;;
72406;SDS011;60396;47.550;18.828;2023-06-10T03:19:37;11.75;;;5.37;;
72406;SDS011;60396;47.550;18.828;2023-06-10T03:22:12;11.20;;;5.32;;
72406;SDS011;60396;47.550;18.828;2023-06-10T03:24:40;13.97;;;5.73;;
72406;SDS011;60396;47.550;18.828;2023-06-10T03:27:12;11.35;;;6.00;;
72406;SDS011;60396;47.550;18.828;2023-06-10T03:29:41;14.55;;;5.50;;
72406;SDS011;60396;47.550;18.828;2023-06-10T03:32:09;9.40;;;5.62;;
72406;SDS011;60396;47.550;18.828;2023-06-10T03:34:38;9.75;;;5.50;;
72406;SDS011;60396;47.550;18.828;2023-06-10T03:37:06;12.83;;;5.53;;
72406;SDS011;60396;47.550;18.828;2023-06-10T03:39:34;11.27;;;5.32;;
72406;SDS011;60396;47.550;18.828;2023-06-10T03:42:01;10.38;;;4.75;;
72406;SDS011;60396;47.550;18.828;2023-06-10T03:44:30;10.00;;;4.65;;
72406;SDS011;60396;47.550;18.828;2023-06-10T03:46:58;9.77;;;4.80;;
72406;SDS011;60396;47.550;18.828;2023-06-10T03:49:27;10.00;;;4.80;;
72406;SDS011;60396;47.550;18.828;2023-06-10T03:51:57;11.35;;;4.97;;
72406;SDS011;60396;47.550;18.828;2023-06-10T03:54:25;10.70;;;4.97;;
72406;SDS011;60396;47.550;18.828;2023-06-10T03:56:52;10.30;;;4.80;;
72406;SDS011;60396;47.550;18.828;2023-06-10T03:59:20;10.43;;;4.72;;
72406;SDS011;60396;47.550;18.828;2023-06-10T04:01:48;8.70;;;4.20;;
72406;SDS011;60396;47.550;18.828;2023-06-10T04:04:16;9.02;;;4.87;;
72406;SDS011;60396;47.550;18.828;2023-06-10T04:06:44;9.60;;;5.28;;
72406;SDS011;60396;47.550;18.828;2023-06-10T04:09:12;12.23;;;5.25;;
72406;SDS011;60396;47.550;18.828;2023-06-10T04:11:40;10.52;;;4.57;;
72406;SDS011;60396;47.550;18.828;2023-06-10T04:14:08;10.23;;;4.87;;
72406;SDS011;60396;47.550;18.828;2023-06-10T04:16:36;10.98;;;5.15;;
72406;SDS011;60396;47.550;18.828;2023-06-10T04:19:04;9.38;;;4.57;;
72406;SDS011;60396;47.550;18.828;2023-06-10T04:21:32;9.18;;;4.82;;
72406;SDS011;60396;47.550;18.828;2023-06-10T04:24:00;9.60;;;4.62;;
72406;SDS011;60396;47.550;18.828;2023-06-10T04:26:28;10.77;;;4.97;;
72406;SDS011;60396;47.550;18.828;2023-06-10T04:28:56;8.80;;;4.57;;
72406;SDS011;60396;47.550;18.828;2023-06-10T04:31:23;9.75;;;4.20;;
72406;SDS011;60396;47.550;18.828;2023-06-10T04:33:51;8.93;;;4.20;;
72406;SDS011;60396;47.550;18.828;2023-06-10T04:36:19;7.45;;;3.78;;
72406;SDS011;60396;47.550;18.828;2023-06-10T04:38:47;9.23;;;4.10;;
72406;SDS011;60396;47.550;18.828;2023-06-10T04:41:15;7.32;;;3.37;;
72406;SDS011;60396;47.550;18.828;2023-06-10T04:43:42;7.05;;;3.33;;
72406;SDS011;60396;47.550;18.828;2023-06-10T04:46:10;7.85;;;3.08;;
72406;SDS011;60396;47.550;18.828;2023-06-10T04:48:38;9.55;;;3.35;;
72406;SDS011;60396;47.550;18.828;2023-06-10T04:51:06;10.17;;;3.23;;
72406;SDS011;60396;47.550;18.828;2023-06-10T04:53:34;6.78;;;2.40;;
72406;SDS011;60396;47.550;18.828;2023-06-10T04:56:02;6.93;;;2.65;;
72406;SDS011;60396;47.550;18.828;2023-06-10T04:58:30;7.12;;;2.60;;
72406;SDS011;60396;47.550;18.828;2023-06-10T05:00:57;5.20;;;2.17;;
72406;SDS011;60396;47.550;18.828;2023-06-10T05:03:26;8.77;;;2.53;;
72406;SDS011;60396;47.550;18.828;2023-06-10T05:05:53;5.28;;;1.85;;
72406;SDS011;60396;47.550;18.828;2023-06-10T05:08:21;7.22;;;2.00;;
72406;SDS011;60396;47.550;18.828;2023-06-10T05:10:49;5.85;;;2.05;;
72406;SDS011;60396;47.550;18.828;2023-06-10T05:13:17;6.53;;;2.20;;
72406;SDS011;60396;47.550;18.828;2023-06-10T05:15:45;7.27;;;2.70;;
72406;SDS011;60396;47.550;18.828;2023-06-10T05:18:13;6.43;;;2.40;;
72406;SDS011;60396;47.550;18.828;2023-06-10T05:20:41;5.30;;;2.37;;
72406;SDS011;60396;47.550;18.828;2023-06-10T05:23:09;8.15;;;2.20;;
72406;SDS011;60396;47.550;18.828;2023-06-10T05:25:36;6.87;;;2.20;;
72406;SDS011;60396;47.550;18.828;2023-06-10T05:28:04;5.27;;;2.33;;
72406;SDS011;60396;47.550;18.828;2023-06-10T05:30:31;6.50;;;2.58;;
72406;SDS011;60396;47.550;18.828;2023-06-10T05:32:59;7.65;;;2.78;;
72406;SDS011;60396;47.550;18.828;2023-06-10T05:35:27;6.12;;;2.47;;
72406;SDS011;60396;47.550;18.828;2023-06-10T05:37:54;7.07;;;2.75;;
72406;SDS011;60396;47.550;18.828;2023-06-10T05:40:22;6.30;;;2.73;;
72406;SDS011;60396;47.550;18.828;2023-06-10T05:42:50;7.45;;;2.60;;
72406;SDS011;60396;47.550;18.828;2023-06-10T05:45:18;7.12;;;2.60;;
72406;SDS011;60396;47.550;18.828;2023-06-10T05:47:45;6.00;;;2.45;;
72406;SDS011;60396;47.550;18.828;2023-06-10T05:50:13;5.28;;;2.30;;
72406;SDS011;60396;47.550;18.828;2023-06-10T05:52:41;6.00;;;2.43;;
72406;SDS011;60396;47.550;18.828;2023-06-10T05:55:09;6.10;;;2.35;;
72406;SDS011;60396;47.550;18.828;2023-06-10T05:57:37;8.02;;;2.25;;
72406;SDS011;60396;47.550;18.828;2023-06-10T06:00:05;6.20;;;2.55;;
72406;SDS011;60396;47.550;18.828;2023-06-10T06:02:38;5.70;;;2.15;;
72406;SDS011;60396;47.550;18.828;2023-06-10T06:05:06;5.50;;;2.10;;
72406;SDS011;60396;47.550;18.828;2023-06-10T06:07:35;7.57;;;2.40;;
72406;SDS011;60396;47.550;18.828;2023-06-10T06:10:02;7.95;;;2.55;;
72406;SDS011;60396;47.550;18.828;2023-06-10T06:12:31;6.65;;;2.58;;
72406;SDS011;60396;47.550;18.828;2023-06-10T06:14:58;9.10;;;2.12;;
72406;SDS011;60396;47.550;18.828;2023-06-10T06:17:26;7.20;;;2.47;;
72406;SDS011;60396;47.550;18.828;2023-06-10T06:19:54;6.93;;;1.87;;
72406;SDS011;60396;47.550;18.828;2023-06-10T06:22:21;6.20;;;2.50;;
72406;SDS011;60396;47.550;18.828;2023-06-10T06:24:49;5.62;;;2.15;;
72406;SDS011;60396;47.550;18.828;2023-06-10T06:27:17;6.30;;;2.33;;
72406;SDS011;60396;47.550;18.828;2023-06-10T06:29:45;6.33;;;2.20;;
72406;SDS011;60396;47.550;18.828;2023-06-10T06:32:15;6.28;;;2.42;;
72406;SDS011;60396;47.550;18.828;2023-06-10T06:34:43;6.43;;;2.28;;
72406;SDS011;60396;47.550;18.828;2023-06-10T06:37:11;6.70;;;2.28;;
72406;SDS011;60396;47.550;18.828;2023-06-10T06:39:39;5.85;;;2.60;;
72406;SDS011;60396;47.550;18.828;2023-06-10T06:42:07;6.63;;;2.23;;
72406;SDS011;60396;47.550;18.828;2023-06-10T06:44:37;5.62;;;2.40;;
72406;SDS011;60396;47.550;18.828;2023-06-10T06:47:04;6.60;;;2.30;;
72406;SDS011;60396;47.550;18.828;2023-06-10T06:49:32;6.15;;;2.47;;
72406;SDS011;60396;47.550;18.828;2023-06-10T06:52:00;5.45;;;2.10;;
72406;SDS011;60396;47.550;18.828;2023-06-10T06:54:27;7.80;;;2.57;;
72406;SDS011;60396;47.550;18.828;2023-06-10T06:56:56;6.03;;;2.33;;
72406;SDS011;60396;47.550;18.828;2023-06-10T06:59:24;6.78;;;2.35;;
72406;SDS011;60396;47.550;18.828;2023-06-10T07:01:52;7.93;;;2.60;;
72406;SDS011;60396;47.550;18.828;2023-06-10T07:04:22;7.37;;;2.42;;
72406;SDS011;60396;47.550;18.828;2023-06-10T07:06:50;6.03;;;2.10;;
72406;SDS011;60396;47.550;18.828;2023-06-10T07:09:17;5.32;;;2.42;;
72406;SDS011;60396;47.550;18.828;2023-06-10T07:11:45;7.20;;;2.40;;
72406;SDS011;60396;47.550;18.828;2023-06-10T07:14:13;6.53;;;2.33;;
72406;SDS011;60396;47.550;18.828;2023-06-10T07:16:40;5.60;;;2.37;;
72406;SDS011;60396;47.550;18.828;2023-06-10T07:19:08;5.90;;;2.43;;
72406;SDS011;60396;47.550;18.828;2023-06-10T07:21:36;11.40;;;2.60;;
72406;SDS011;60396;47.550;18.828;2023-06-10T07:24:05;6.50;;;2.45;;
72406;SDS011;60396;47.550;18.828;2023-06-10T07:26:33;5.97;;;2.60;;
72406;SDS011;60396;47.550;18.828;2023-06-10T07:29:01;9.00;;;2.30;;
72406;SDS011;60396;47.550;18.828;2023-06-10T07:31:28;5.63;;;2.20;;
72406;SDS011;60396;47.550;18.828;2023-06-10T07:33:56;5.95;;;2.33;;
72406;SDS011;60396;47.550;18.828;2023-06-10T07:36:24;5.95;;;2.50;;
72406;SDS011;60396;47.550;18.828;2023-06-10T07:38:54;8.43;;;2.30;;
72406;SDS011;60396;47.550;18.828;2023-06-10T07:41:23;7.68;;;2.47;;
72406;SDS011;60396;47.550;18.828;2023-06-10T07:43:52;5.73;;;2.47;;
72406;SDS011;60396;47.550;18.828;2023-06-10T07:46:22;8.93;;;2.90;;
72406;SDS011;60396;47.550;18.828;2023-06-10T07:48:51;5.95;;;2.33;;
72406;SDS011;60396;47.550;18.828;2023-06-10T07:51:19;6.05;;;2.25;;
72406;SDS011;60396;47.550;18.828;2023-06-10T07:53:46;6.20;;;2.53;;
72406;SDS011;60396;47.550;18.828;2023-06-10T07:56:14;5.80;;;2.47;;
72406;SDS011;60396;47.550;18.828;2023-06-10T07:58:42;5.85;;;2.67;;
72406;SDS011;60396;47.550;18.828;2023-06-10T08:01:09;6.18;;;2.70;;
72406;SDS011;60396;47.550;18.828;2023-06-10T08:03:37;6.75;;;3.17;;
72406;SDS011;60396;47.550;18.828;2023-06-10T08:06:05;6.85;;;2.45;;
72406;SDS011;60396;47.550;18.828;2023-06-10T08:08:32;8.03;;;2.90;;
72406;SDS011;60396;47.550;18.828;2023-06-10T08:11:02;7.47;;;2.72;;
72406;SDS011;60396;47.550;18.828;2023-06-10T08:13:29;8.23;;;3.00;;
72406;SDS011;60396;47.550;18.828;2023-06-10T08:15:57;6.80;;;3.17;;
72406;SDS011;60396;47.550;18.828;2023-06-10T08:18:25;7.35;;;2.60;;
72406;SDS011;60396;47.550;18.828;2023-06-10T08:20:52;8.77;;;2.87;;
72406;SDS011;60396;47.550;18.828;2023-06-10T08:23:20;6.55;;;2.62;;
72406;SDS011;60396;47.550;18.828;2023-06-10T08:25:48;7.70;;;2.53;;
72406;SDS011;60396;47.550;18.828;2023-06-10T08:28:15;5.37;;;2.30;;
72406;SDS011;60396;47.550;18.828;2023-06-10T08:30:43;6.72;;;2.45;;
72406;SDS011;60396;47.550;18.828;2023-06-10T08:33:11;5.93;;;2.77;;
72406;SDS011;60396;47.550;18.828;2023-06-10T08:35:39;7.55;;;2.42;;
72406;SDS011;60396;47.550;18.828;2023-06-10T08:38:06;7.75;;;2.40;;
72406;SDS011;60396;47.550;18.828;2023-06-10T08:40:35;7.53;;;2.80;;
72406;SDS011;60396;47.550;18.828;2023-06-10T08:43:06;7.35;;;2.85;;
72406;SDS011;60396;47.550;18.828;2023-06-10T08:45:36;8.07;;;2.60;;
72406;SDS011;60396;47.550;18.828;2023-06-10T08:48:04;6.95;;;2.85;;
72406;SDS011;60396;47.550;18.828;2023-06-10T08:50:34;5.70;;;2.70;;
72406;SDS011;60396;47.550;18.828;2023-06-10T08:53:06;5.35;;;2.10;;
72406;SDS011;60396;47.550;18.828;2023-06-10T08:55:37;5.97;;;2.80;;
72406;SDS011;60396;47.550;18.828;2023-06-10T08:58:05;6.50;;;2.63;;
72406;SDS011;60396;47.550;18.828;2023-06-10T09:00:33;7.10;;;3.30;;
72406;SDS011;60396;47.550;18.828;2023-06-10T09:03:03;6.12;;;2.72;;
72406;SDS011;60396;47.550;18.828;2023-06-10T09:05:35;6.40;;;2.45;;
72406;SDS011;60396;47.550;18.828;2023-06-10T09:08:05;6.68;;;3.00;;
72406;SDS011;60396;47.550;18.828;2023-06-10T09:10:34;5.83;;;2.40;;
72406;SDS011;60396;47.550;18.828;2023-06-10T09:13:01;7.72;;;2.42;;
72406;SDS011;60396;47.550;18.828;2023-06-10T09:15:29;5.25;;;2.45;;
72406;SDS011;60396;47.550;18.828;2023-06-10T09:17:57;5.75;;;2.50;;
72406;SDS011;60396;47.550;18.828;2023-06-10T09:20:26;5.70;;;2.00;;
72406;SDS011;60396;47.550;18.828;2023-06-10T09:22:54;5.50;;;2.27;;
72406;SDS011;60396;47.550;18.828;2023-06-10T09:25:28;6.20;;;2.60;;
72406;SDS011;60396;47.550;18.828;2023-06-10T09:28:03;5.43;;;2.20;;
72406;SDS011;60396;47.550;18.828;2023-06-10T09:30:32;6.28;;;2.37;;
72406;SDS011;60396;47.550;18.828;2023-06-10T09:33:01;5.32;;;2.05;;
72406;SDS011;60396;47.550;18.828;2023-06-10T09:35:30;6.83;;;1.77;;
72406;SDS011;60396;47.550;18.828;2023-06-10T09:37:59;5.37;;;1.90;;
72406;SDS011;60396;47.550;18.828;2023-06-10T09:40:27;6.70;;;1.83;;
72406;SDS011;60396;47.550;18.828;2023-06-10T09:42:59;4.65;;;2.17;;
72406;SDS011;60396;47.550;18.828;2023-06-10T09:45:30;7.72;;;1.92;;
72406;SDS011;60396;47.550;18.828;2023-06-10T09:47:59;6.23;;;2.00;;
72406;SDS011;60396;47.550;18.828;2023-06-10T09:50:27;5.53;;;2.40;;
72406;SDS011;60396;47.550;18.828;2023-06-10T09:52:55;5.78;;;2.12;;
72406;SDS011;60396;47.550;18.828;2023-06-10T09:55:23;8.27;;;2.35;;
72406;SDS011;60396;47.550;18.828;2023-06-10T09:57:53;6.05;;;2.33;;
72406;SDS011;60396;47.550;18.828;2023-06-10T10:00:21;4.97;;;2.03;;
72406;SDS011;60396;47.550;18.828;2023-06-10T10:02:50;4.93;;;1.80;;
72406;SDS011;60396;47.550;18.828;2023-06-10T10:05:20;4.93;;;1.77;;
72406;SDS011;60396;47.550;18.828;2023-06-10T10:07:48;5.37;;;2.00;;
72406;SDS011;60396;47.550;18.828;2023-06-10T10:10:17;5.97;;;2.05;;
72406;SDS011;60396;47.550;18.828;2023-06-10T10:12:47;3.83;;;1.67;;
72406;SDS011;60396;47.550;18.828;2023-06-10T10:15:16;6.65;;;2.03;;
72406;SDS011;60396;47.550;18.828;2023-06-10T10:20:16;5.10;;;2.40;;
72406;SDS011;60396;47.550;18.828;2023-06-10T10:22:46;6.10;;;2.53;;
72406;SDS011;60396;47.550;18.828;2023-06-10T10:25:20;6.40;;;2.10;;
72406;SDS011;60396;47.550;18.828;2023-06-10T10:27:51;6.85;;;2.35;;
72406;SDS011;60396;47.550;18.828;2023-06-10T10:30:20;5.80;;;2.20;;
72406;SDS011;60396;47.550;18.828;2023-06-10T10:35:36;5.60;;;2.25;;
72406;SDS011;60396;47.550;18.828;2023-06-10T10:38:05;7.87;;;2.43;;
72406;SDS011;60396;47.550;18.828;2023-06-10T10:40:33;5.45;;;2.30;;
72406;SDS011;60396;47.550;18.828;2023-06-10T10:43:01;7.03;;;2.47;;
72406;SDS011;60396;47.550;18.828;2023-06-10T10:45:29;5.45;;;1.95;;
72406;SDS011;60396;47.550;18.828;2023-06-10T10:47:57;5.87;;;2.10;;
72406;SDS011;60396;47.550;18.828;2023-06-10T10:50:25;6.80;;;2.87;;
72406;SDS011;60396;47.550;18.828;2023-06-10T10:53:01;6.32;;;2.55;;
72406;SDS011;60396;47.550;18.828;2023-06-10T10:55:30;7.95;;;2.35;;
72406;SDS011;60396;47.550;18.828;2023-06-10T10:57:59;4.95;;;2.37;;
72406;SDS011;60396;47.550;18.828;2023-06-10T11:00:43;7.95;;;2.40;;
72406;SDS011;60396;47.550;18.828;2023-06-10T11:03:13;6.20;;;2.43;;
72406;SDS011;60396;47.550;18.828;2023-06-10T11:05:43;6.80;;;2.70;;
72406;SDS011;60396;47.550;18.828;2023-06-10T11:10:58;6.53;;;3.62;;
72406;SDS011;60396;47.550;18.828;2023-06-10T11:13:27;6.97;;;3.47;;
72406;SDS011;60396;47.550;18.828;2023-06-10T11:15:58;7.13;;;3.10;;
72406;SDS011;60396;47.550;18.828;2023-06-10T11:18:27;7.40;;;3.30;;
72406;SDS011;60396;47.550;18.828;2023-06-10T11:21:01;6.35;;;3.25;;
72406;SDS011;60396;47.550;18.828;2023-06-10T11:26:09;6.30;;;3.25;;
72406;SDS011;60396;47.550;18.828;2023-06-10T11:28:38;8.17;;;3.40;;
72406;SDS011;60396;47.550;18.828;2023-06-10T11:31:06;8.88;;;3.17;;
72406;SDS011;60396;47.550;18.828;2023-06-10T11:33:34;7.75;;;3.40;;
72406;SDS011;60396;47.550;18.828;2023-06-10T11:36:06;11.07;;;7.40;;
72406;SDS011;60396;47.550;18.828;2023-06-10T11:38:35;17.70;;;10.73;;
72406;SDS011;60396;47.550;18.828;2023-06-10T11:41:03;7.80;;;4.00;;
72406;SDS011;60396;47.550;18.828;2023-06-10T11:43:30;6.93;;;3.05;;
72406;SDS011;60396;47.550;18.828;2023-06-10T11:45:58;7.05;;;3.15;;
72406;SDS011;60396;47.550;18.828;2023-06-10T11:48:27;5.80;;;2.40;;
72406;SDS011;60396;47.550;18.828;2023-06-10T11:50:57;6.60;;;2.67;;
72406;SDS011;60396;47.550;18.828;2023-06-10T11:53:25;6.93;;;3.70;;
72406;SDS011;60396;47.550;18.828;2023-06-10T11:55:53;8.07;;;3.58;;
72406;SDS011;60396;47.550;18.828;2023-06-10T11:58:21;11.73;;;5.68;;
72406;SDS011;60396;47.550;18.828;2023-06-10T12:00:50;10.35;;;4.57;;
72406;SDS011;60396;47.550;18.828;2023-06-10T12:03:20;7.97;;;4.13;;
72406;SDS011;60396;47.550;18.828;2023-06-10T12:05:57;6.40;;;2.87;;
72406;SDS011;60396;47.550;18.828;2023-06-10T12:08:29;6.35;;;2.80;;
72406;SDS011;60396;47.550;18.828;2023-06-10T12:10:57;6.43;;;2.65;;
72406;SDS011;60396;47.550;18.828;2023-06-10T12:13:28;7.47;;;2.90;;
72406;SDS011;60396;47.550;18.828;2023-06-10T12:16:05;6.90;;;2.97;;
72406;SDS011;60396;47.550;18.828;2023-06-10T12:18:34;5.45;;;2.25;;
72406;SDS011;60396;47.550;18.828;2023-06-10T12:21:03;6.47;;;2.95;;
72406;SDS011;60396;47.550;18.828;2023-06-10T12:23:30;5.20;;;2.05;;
72406;SDS011;60396;47.550;18.828;2023-06-10T12:25:59;6.32;;;2.17;;
72406;SDS011;60396;47.550;18.828;2023-06-10T12:28:27;5.90;;;2.70;;
72406;SDS011;60396;47.550;18.828;2023-06-10T12:31:07;4.93;;;1.98;;
72406;SDS011;60396;47.550;18.828;2023-06-10T12:33:35;6.40;;;1.98;;
72406;SDS011;60396;47.550;18.828;2023-06-10T12:36:03;6.00;;;2.17;;
72406;SDS011;60396;47.550;18.828;2023-06-10T12:38:31;6.07;;;2.58;;
72406;SDS011;60396;47.550;18.828;2023-06-10T12:41:02;5.20;;;2.30;;
72406;SDS011;60396;47.550;18.828;2023-06-10T12:43:31;5.95;;;2.33;;
72406;SDS011;60396;47.550;18.828;2023-06-10T12:46:09;7.35;;;2.62;;
72406;SDS011;60396;47.550;18.828;2023-06-10T12:48:37;5.25;;;2.15;;
72406;SDS011;60396;47.550;18.828;2023-06-10T12:51:16;8.23;;;2.45;;
72406;SDS011;60396;47.550;18.828;2023-06-10T12:53:44;7.10;;;2.83;;
72406;SDS011;60396;47.550;18.828;2023-06-10T12:56:12;7.22;;;2.80;;
72406;SDS011;60396;47.550;18.828;2023-06-10T12:58:40;9.35;;;3.20;;
72406;SDS011;60396;47.550;18.828;2023-06-10T13:01:07;7.07;;;2.95;;
72406;SDS011;60396;47.550;18.828;2023-06-10T13:03:35;6.85;;;3.05;;
72406;SDS011;60396;47.550;18.828;2023-06-10T13:06:05;11.30;;;4.83;;
72406;SDS011;60396;47.550;18.828;2023-06-10T13:08:34;10.40;;;4.90;;
72406;SDS011;60396;47.550;18.828;2023-06-10T13:11:01;10.68;;;4.05;;
72406;SDS011;60396;47.550;18.828;2023-06-10T13:13:29;12.02;;;3.55;;
72406;SDS011;60396;47.550;18.828;2023-06-10T13:15:56;6.97;;;3.47;;
72406;SDS011;60396;47.550;18.828;2023-06-10T13:18:24;8.33;;;2.73;;
72406;SDS011;60396;47.550;18.828;2023-06-10T13:20:53;9.10;;;2.67;;
72406;SDS011;60396;47.550;18.828;2023-06-10T13:23:20;6.10;;;2.62;;
72406;SDS011;60396;47.550;18.828;2023-06-10T13:25:48;6.53;;;2.50;;
72406;SDS011;60396;47.550;18.828;2023-06-10T13:28:16;6.10;;;2.78;;
72406;SDS011;60396;47.550;18.828;2023-06-10T13:30:44;5.43;;;2.10;;
72406;SDS011;60396;47.550;18.828;2023-06-10T13:33:12;4.87;;;1.83;;
72406;SDS011;60396;47.550;18.828;2023-06-10T13:35:40;5.37;;;2.10;;
72406;SDS011;60396;47.550;18.828;2023-06-10T13:38:08;5.75;;;2.20;;
72406;SDS011;60396;47.550;18.828;2023-06-10T13:40:36;5.50;;;2.00;;
72406;SDS011;60396;47.550;18.828;2023-06-10T13:43:05;4.00;;;1.47;;
72406;SDS011;60396;47.550;18.828;2023-06-10T13:45:33;5.60;;;1.50;;
72406;SDS011;60396;47.550;18.828;2023-06-10T13:48:01;5.62;;;1.98;;
72406;SDS011;60396;47.550;18.828;2023-06-10T13:50:31;5.37;;;1.65;;
72406;SDS011;60396;47.550;18.828;2023-06-10T13:52:59;5.28;;;1.80;;
72406;SDS011;60396;47.550;18.828;2023-06-10T13:55:30;5.43;;;1.40;;
72406;SDS011;60396;47.550;18.828;2023-06-10T13:57:58;5.50;;;1.70;;
72406;SDS011;60396;47.550;18.828;2023-06-10T14:00:26;5.60;;;1.62;;
72406;SDS011;60396;47.550;18.828;2023-06-10T14:02:55;4.53;;;1.30;;
72406;SDS011;60396;47.550;18.828;2023-06-10T14:05:23;4.45;;;1.67;;
72406;SDS011;60396;47.550;18.828;2023-06-10T14:07:51;4.17;;;1.60;;
72406;SDS011;60396;47.550;18.828;2023-06-10T14:10:19;4.43;;;1.60;;
72406;SDS011;60396;47.550;18.828;2023-06-10T14:12:46;4.75;;;2.00;;
72406;SDS011;60396;47.550;18.828;2023-06-10T14:15:14;5.72;;;1.62;;
72406;SDS011;60396;47.550;18.828;2023-06-10T14:17:42;5.50;;;2.12;;
72406;SDS011;60396;47.550;18.828;2023-06-10T14:20:09;4.17;;;1.50;;
72406;SDS011;60396;47.550;18.828;2023-06-10T14:22:37;4.95;;;2.10;;
72406;SDS011;60396;47.550;18.828;2023-06-10T14:25:05;4.28;;;1.90;;
72406;SDS011;60396;47.550;18.828;2023-06-10T14:27:34;4.45;;;1.98;;
72406;SDS011;60396;47.550;18.828;2023-06-10T14:30:02;5.07;;;2.15;;
72406;SDS011;60396;47.550;18.828;2023-06-10T14:32:31;6.00;;;2.00;;
72406;SDS011;60396;47.550;18.828;2023-06-10T14:34:59;6.85;;;2.10;;
72406;SDS011;60396;47.550;18.828;2023-06-10T14:37:26;6.55;;;2.70;;
72406;SDS011;60396;47.550;18.828;2023-06-10T14:39:54;4.87;;;1.95;;
72406;SDS011;60396;47.550;18.828;2023-06-10T14:42:21;4.32;;;1.70;;
72406;SDS011;60396;47.550;18.828;2023-06-10T14:44:49;5.33;;;1.80;;
72406;SDS011;60396;47.550;18.828;2023-06-10T14:47:18;4.57;;;1.90;;
72406;SDS011;60396;47.550;18.828;2023-06-10T14:49:45;5.40;;;2.10;;
72406;SDS011;60396;47.550;18.828;2023-06-10T14:52:13;5.28;;;2.15;;
72406;SDS011;60396;47.550;18.828;2023-06-10T14:54:41;5.60;;;2.08;;
72406;SDS011;60396;47.550;18.828;2023-06-10T14:57:11;6.77;;;2.00;;
72406;SDS011;60396;47.550;18.828;2023-06-10T14:59:38;5.30;;;2.17;;
72406;SDS011;60396;47.550;18.828;2023-06-10T15:02:06;4.95;;;2.25;;